createdAt,value
2023-03-26T00:02:34.806Z,9.23
2023-03-26T00:05:01.662Z,9.02
2023-03-26T00:07:28.759Z,9.04
2023-03-26T00:09:55.947Z,8.95
2023-03-26T00:12:22.604Z,9.18
2023-03-26T00:14:49.499Z,9.24
2023-03-26T00:17:16.137Z,9.09
2023-03-26T00:19:43.219Z,9.06
2023-03-26T00:22:13.536Z,9.18
2023-03-26T00:24:40.524Z,9.23
2023-03-26T00:27:08.883Z,9.15
2023-03-26T00:29:35.843Z,9.17
2023-03-26T00:32:03.491Z,9.24
2023-03-26T00:34:31.046Z,9.38
2023-03-26T00:37:03.648Z,9.20
2023-03-26T00:39:34.503Z,9.26
2023-03-26T00:42:07.029Z,9.38
2023-03-26T00:44:34.804Z,9.34
2023-03-26T00:47:23.847Z,9.39
2023-03-26T00:49:53.357Z,9.33
2023-03-26T00:52:24.687Z,9.37
2023-03-26T00:54:57.930Z,9.46
2023-03-26T00:57:36.160Z,9.35
2023-03-26T01:00:13.892Z,9.43
2023-03-26T01:02:41.775Z,9.35
2023-03-26T01:05:32.602Z,9.57
2023-03-26T01:08:08.839Z,9.53
2023-03-26T01:10:50.566Z,9.43
2023-03-26T01:13:28.241Z,9.50
2023-03-26T01:16:02.271Z,9.39
2023-03-26T01:18:59.037Z,9.53
2023-03-26T01:21:28.798Z,9.54
2023-03-26T01:24:05.869Z,9.51
2023-03-26T01:26:52.936Z,9.37
2023-03-26T01:29:22.635Z,9.57
2023-03-26T01:31:49.214Z,9.46
2023-03-26T01:34:38.761Z,9.41
2023-03-26T01:37:13.358Z,9.59
2023-03-26T01:39:57.273Z,9.56
2023-03-26T01:42:44.156Z,9.64
2023-03-26T01:45:16.720Z,9.57
2023-03-26T01:47:44.191Z,9.57
2023-03-26T01:50:11.148Z,9.57
2023-03-26T01:52:38.300Z,9.57
2023-03-26T01:55:06.890Z,9.62
2023-03-26T01:58:03.120Z,9.56
2023-03-26T02:00:32.344Z,9.54
2023-03-26T02:03:00.246Z,9.58
2023-03-26T02:05:33.530Z,9.48
2023-03-26T02:08:06.440Z,9.37
2023-03-26T02:10:35.838Z,9.42
2023-03-26T02:13:06.001Z,9.45
2023-03-26T02:15:33.014Z,9.50
2023-03-26T02:18:04.220Z,9.61
2023-03-26T02:20:31.594Z,9.52
2023-03-26T02:22:58.205Z,9.52
2023-03-26T02:25:25.538Z,9.46
2023-03-26T02:27:52.670Z,9.40
2023-03-26T02:30:25.706Z,9.39
2023-03-26T02:32:59.444Z,9.38
2023-03-26T02:35:34.390Z,9.36
2023-03-26T02:38:03.108Z,9.32
2023-03-26T02:40:29.760Z,9.21
2023-03-26T02:42:58.819Z,9.24
2023-03-26T02:45:27.410Z,9.45
2023-03-26T02:48:12.982Z,9.37
2023-03-26T02:51:03.144Z,9.37
2023-03-26T02:53:41.890Z,9.41
2023-03-26T02:56:23.730Z,9.35
2023-03-26T02:59:10.892Z,9.31
2023-03-26T03:01:43.063Z,9.14
2023-03-26T03:04:12.130Z,9.10
2023-03-26T03:06:40.541Z,8.98
2023-03-26T03:09:10.750Z,8.97
2023-03-26T03:11:40.967Z,8.95
2023-03-26T03:14:08.237Z,8.82
2023-03-26T03:16:35.479Z,8.81
2023-03-26T03:19:06.369Z,8.75
2023-03-26T03:21:40.752Z,8.71
2023-03-26T03:24:08.729Z,8.71
2023-03-26T03:26:41.349Z,8.61
2023-03-26T03:29:30.874Z,8.48
2023-03-26T03:32:04.588Z,8.56
2023-03-26T03:34:43.516Z,8.57
2023-03-26T03:37:10.328Z,8.64
2023-03-26T03:39:49.415Z,8.43
2023-03-26T03:42:22.249Z,8.48
2023-03-26T03:44:52.083Z,8.42
2023-03-26T03:47:37.427Z,8.41
2023-03-26T03:50:05.002Z,8.28
2023-03-26T03:52:35.014Z,8.30
2023-03-26T03:55:01.773Z,8.34
2023-03-26T03:57:45.910Z,8.34
2023-03-26T04:00:20.430Z,8.25
2023-03-26T04:02:58.954Z,8.25
2023-03-26T04:05:28.176Z,8.28
2023-03-26T04:07:54.965Z,8.32
2023-03-26T04:10:21.717Z,8.24
2023-03-26T04:13:07.109Z,8.21
2023-03-26T04:15:49.602Z,8.26
2023-03-26T04:18:16.281Z,8.30
2023-03-26T04:20:51.098Z,8.32
2023-03-26T04:23:24.655Z,8.13
2023-03-26T04:25:58.336Z,8.11
2023-03-26T04:28:46.347Z,8.18
2023-03-26T04:31:24.244Z,8.15
2023-03-26T04:33:55.364Z,8.14
2023-03-26T04:36:32.244Z,8.38
2023-03-26T04:39:05.330Z,8.06
2023-03-26T04:41:55.506Z,8.15
2023-03-26T04:44:30.372Z,8.21
2023-03-26T04:47:04.923Z,8.21
2023-03-26T04:49:38.173Z,8.14
2023-03-26T04:52:05.099Z,8.35
2023-03-26T04:55:06.997Z,8.32
2023-03-26T04:57:53.918Z,8.41
2023-03-26T05:00:43.668Z,8.46
2023-03-26T05:03:11.741Z,8.68
2023-03-26T05:05:39.373Z,8.68
2023-03-26T05:08:07.501Z,8.56
2023-03-26T05:10:34.443Z,8.44
2023-03-26T05:13:09.615Z,8.60
2023-03-26T05:15:40.882Z,8.89
2023-03-26T05:18:32.404Z,8.83
2023-03-26T05:21:01.038Z,8.62
2023-03-26T05:23:28.753Z,8.96
2023-03-26T05:26:11.156Z,9.07
2023-03-26T05:28:37.836Z,8.99
2023-03-26T05:31:12.522Z,8.83
2023-03-26T05:33:43.922Z,8.80
2023-03-26T05:36:15.597Z,8.91
2023-03-26T05:39:05.570Z,9.12
2023-03-26T05:41:59.055Z,8.93
2023-03-26T05:44:37.932Z,8.92
2023-03-26T05:47:14.315Z,8.97
2023-03-26T05:49:41.343Z,9.03
2023-03-26T05:52:07.999Z,9.31
2023-03-26T05:54:54.635Z,9.26
2023-03-26T05:57:40.284Z,9.12
2023-03-26T06:00:25.549Z,9.13
2023-03-26T06:02:56.376Z,8.93
2023-03-26T06:05:46.612Z,9.12
2023-03-26T06:08:19.719Z,9.25
2023-03-26T06:10:51.828Z,9.24
2023-03-26T06:13:19.266Z,9.21
2023-03-26T06:15:48.309Z,9.47
2023-03-26T06:18:33.044Z,9.61
2023-03-26T06:21:19.779Z,9.39
2023-03-26T06:23:53.460Z,9.63
2023-03-26T06:26:35.819Z,9.94
2023-03-26T06:29:22.797Z,9.94
2023-03-26T06:32:19.015Z,9.79
2023-03-26T06:35:07.052Z,10.11
2023-03-26T06:37:33.939Z,9.81
2023-03-26T06:40:05.102Z,9.87
2023-03-26T06:43:07.500Z,9.91
2023-03-26T06:46:00.514Z,10.02
2023-03-26T06:48:39.791Z,10.09
2023-03-26T06:51:25.139Z,10.12
2023-03-26T06:54:24.723Z,10.02
2023-03-26T06:56:53.987Z,10.30
2023-03-26T06:59:39.113Z,9.99
2023-03-26T07:02:24.214Z,10.03
2023-03-26T07:05:10.043Z,10.24
2023-03-26T07:08:08.734Z,10.08
2023-03-26T07:10:53.977Z,9.94
2023-03-26T07:13:40.152Z,10.12
2023-03-26T07:16:50.863Z,10.05
2023-03-26T07:19:46.738Z,10.18
2023-03-26T07:22:20.131Z,10.23
2023-03-26T07:25:06.092Z,10.22
2023-03-26T07:27:58.734Z,10.12
2023-03-26T07:31:18.958Z,10.28
2023-03-26T07:34:13.606Z,10.34
2023-03-26T07:37:04.629Z,10.37
2023-03-26T07:39:50.852Z,10.24
2023-03-26T07:42:55.582Z,10.37
2023-03-26T07:45:48.891Z,10.21
2023-03-26T07:48:29.721Z,10.46
2023-03-26T07:51:18.765Z,10.47
2023-03-26T07:54:10.719Z,10.55
2023-03-26T07:56:46.788Z,10.80
2023-03-26T07:59:36.482Z,10.81
2023-03-26T08:02:44.307Z,10.77
2023-03-26T08:08:37.463Z,11.06
2023-03-26T08:11:24.524Z,11.17
2023-03-26T08:14:11.866Z,11.18
2023-03-26T08:16:44.770Z,11.05
2023-03-26T08:19:24.492Z,11.32
2023-03-26T08:21:54.210Z,11.78
2023-03-26T08:24:31.611Z,11.84
2023-03-26T08:27:01.770Z,11.98
2023-03-26T08:29:28.548Z,12.25
2023-03-26T08:31:57.615Z,12.17
2023-03-26T08:34:24.316Z,12.63
2023-03-26T08:36:51.135Z,13.31
2023-03-26T08:39:19.908Z,13.53
2023-03-26T08:42:03.952Z,13.60
2023-03-26T08:44:52.682Z,13.39
2023-03-26T08:47:22.368Z,12.94
2023-03-26T08:50:04.592Z,13.19
2023-03-26T08:52:52.988Z,13.07
2023-03-26T08:55:19.635Z,12.83
2023-03-26T08:58:15.935Z,12.87
2023-03-26T09:00:49.832Z,12.34
2023-03-26T09:03:16.451Z,12.50
2023-03-26T09:06:07.210Z,12.25
2023-03-26T09:08:53.867Z,12.34
2023-03-26T09:11:34.182Z,12.42
2023-03-26T09:14:07.179Z,12.32
2023-03-26T09:16:36.980Z,12.31
2023-03-26T09:19:23.797Z,12.23
2023-03-26T09:22:05.671Z,12.43
2023-03-26T09:24:32.416Z,12.32
2023-03-26T09:27:11.471Z,12.44
2023-03-26T09:29:56.898Z,12.38
2023-03-26T09:32:47.297Z,12.25
2023-03-26T09:35:19.998Z,12.19
2023-03-26T09:37:57.069Z,11.97
2023-03-26T09:40:38.309Z,11.96
2023-03-26T09:43:28.918Z,11.89
2023-03-26T09:46:14.568Z,12.17
2023-03-26T09:49:02.553Z,12.45
2023-03-26T09:51:56.436Z,12.69
2023-03-26T09:54:44.512Z,12.49
2023-03-26T09:57:26.343Z,12.83
2023-03-26T10:00:09.844Z,12.53
2023-03-26T10:02:46.654Z,12.30
2023-03-26T10:05:17.387Z,12.36
2023-03-26T10:07:47.349Z,12.33
2023-03-26T10:10:18.664Z,12.58
2023-03-26T10:13:14.966Z,13.44
2023-03-26T10:15:41.871Z,14.38
2023-03-26T10:18:30.148Z,15.61
2023-03-26T10:21:19.482Z,17.20
2023-03-26T10:24:01.535Z,17.28
2023-03-26T10:27:09.032Z,18.37
2023-03-26T10:29:55.385Z,18.02
2023-03-26T10:32:44.306Z,16.70
2023-03-26T10:35:11.046Z,16.62
2023-03-26T10:37:56.488Z,16.93
2023-03-26T10:40:43.218Z,17.86
2023-03-26T10:43:28.717Z,18.20
2023-03-26T10:46:02.516Z,17.74
2023-03-26T10:48:42.657Z,17.97
2023-03-26T10:51:21.697Z,17.99
2023-03-26T10:53:48.364Z,18.40
2023-03-26T10:56:30.003Z,18.75
2023-03-26T10:59:03.857Z,18.06
2023-03-26T11:01:51.454Z,18.00
2023-03-26T11:04:38.524Z,17.02
2023-03-26T11:07:16.565Z,16.36
2023-03-26T11:09:46.389Z,15.93
2023-03-26T11:12:26.868Z,16.03
2023-03-26T11:15:07.312Z,16.41
2023-03-26T11:17:45.270Z,16.21
2023-03-26T11:20:22.644Z,16.18
2023-03-26T11:23:11.233Z,16.31
2023-03-26T11:25:43.760Z,17.47
2023-03-26T11:28:17.344Z,17.92
2023-03-26T11:30:55.853Z,17.72
2023-03-26T11:33:25.139Z,17.29
2023-03-26T11:35:54.555Z,16.76
2023-03-26T11:38:53.761Z,17.22
2023-03-26T11:41:28.437Z,17.42
2023-03-26T11:44:14.826Z,17.13
2023-03-26T11:46:43.995Z,16.98
2023-03-26T11:49:13.011Z,17.56
2023-03-26T11:51:41.378Z,16.36
2023-03-26T11:54:11.731Z,16.87
2023-03-26T11:57:05.569Z,16.51
2023-03-26T11:59:45.267Z,15.93
2023-03-26T12:02:24.045Z,15.24
2023-03-26T12:04:55.371Z,15.26
2023-03-26T12:07:34.982Z,15.08
2023-03-26T12:10:17.940Z,15.16
2023-03-26T12:12:54.396Z,15.44
2023-03-26T12:15:21.477Z,14.63
2023-03-26T12:17:50.314Z,14.48
2023-03-26T12:20:26.272Z,14.45
2023-03-26T12:23:04.277Z,14.62
2023-03-26T12:25:34.005Z,14.98
2023-03-26T12:28:07.578Z,15.39
2023-03-26T12:30:35.825Z,15.72
2023-03-26T12:33:16.370Z,16.11
2023-03-26T12:35:43.779Z,16.21
2023-03-26T12:38:22.745Z,16.97
2023-03-26T12:40:49.913Z,17.47
2023-03-26T12:44:46.609Z,18.43
2023-03-26T12:47:56.279Z,18.57
2023-03-26T12:49:15.053Z,18.53
2023-03-26T12:51:48.833Z,18.63
2023-03-26T12:54:16.604Z,18.06
2023-03-26T12:56:50.019Z,17.00
2023-03-26T12:59:55.929Z,16.54
2023-03-26T13:02:34.926Z,16.61
2023-03-26T13:05:24.749Z,15.71
2023-03-26T13:08:03.444Z,16.02
2023-03-26T13:10:53.748Z,16.18
2023-03-26T13:13:40.138Z,16.38
2023-03-26T13:16:07.006Z,16.12
2023-03-26T13:18:33.629Z,15.76
2023-03-26T13:21:00.619Z,15.97
2023-03-26T13:23:44.705Z,15.53
2023-03-26T13:26:12.178Z,15.12
2023-03-26T13:28:48.208Z,14.63
2023-03-26T13:31:33.839Z,14.52
2023-03-26T13:34:08.424Z,15.12
2023-03-26T13:36:41.270Z,14.66
2023-03-26T13:39:14.293Z,14.89
2023-03-26T13:41:50.302Z,15.19
2023-03-26T13:44:35.007Z,15.43
2023-03-26T13:47:07.727Z,15.11
2023-03-26T13:49:39.928Z,14.74
2023-03-26T13:52:10.623Z,15.29
2023-03-26T13:54:41.642Z,15.07
2023-03-26T13:57:25.429Z,15.29
2023-03-26T13:59:55.633Z,15.58
2023-03-26T14:02:22.282Z,15.49
2023-03-26T14:04:51.552Z,15.44
2023-03-26T14:07:23.566Z,16.02
2023-03-26T14:09:53.465Z,15.45
2023-03-26T14:12:23.305Z,16.28
2023-03-26T14:14:53.761Z,16.54
2023-03-26T14:17:23.594Z,16.90
2023-03-26T14:19:56.260Z,16.74
2023-03-26T14:22:38.258Z,16.63
2023-03-26T14:25:05.202Z,16.66
2023-03-26T14:27:52.448Z,16.71
2023-03-26T14:30:37.776Z,16.51
2023-03-26T14:33:34.717Z,16.10
2023-03-26T14:36:04.376Z,15.55
2023-03-26T14:38:44.371Z,15.12
2023-03-26T14:41:24.885Z,14.76
2023-03-26T14:44:10.646Z,15.07
2023-03-26T14:46:56.076Z,14.61
2023-03-26T14:49:25.263Z,14.49
2023-03-26T14:51:57.837Z,14.28
2023-03-26T14:54:27.362Z,14.31
2023-03-26T14:57:12.459Z,14.29
2023-03-26T14:59:39.234Z,13.95
2023-03-26T15:02:27.096Z,14.15
2023-03-26T15:04:53.855Z,14.07
2023-03-26T15:07:37.220Z,14.20
2023-03-26T15:10:16.856Z,14.05
2023-03-26T15:12:48.767Z,14.19
2023-03-26T15:15:35.190Z,14.59
2023-03-26T15:18:21.151Z,14.03
2023-03-26T15:20:57.498Z,14.23
2023-03-26T15:23:27.258Z,14.37
2023-03-26T15:26:15.729Z,14.11
2023-03-26T15:29:01.365Z,14.12
2023-03-26T15:31:31.113Z,13.54
2023-03-26T15:34:21.328Z,13.60
2023-03-26T15:37:13.515Z,13.73
2023-03-26T15:40:00.097Z,13.57
2023-03-26T15:42:41.759Z,13.12
2023-03-26T15:45:11.643Z,13.01
2023-03-26T15:47:43.294Z,12.80
2023-03-26T15:50:11.125Z,12.91
2023-03-26T15:53:07.704Z,12.94
2023-03-26T15:55:52.979Z,13.12
2023-03-26T15:58:28.751Z,13.50
2023-03-26T16:01:20.765Z,13.05
2023-03-26T16:03:53.786Z,12.99
2023-03-26T16:06:41.622Z,13.05
2023-03-26T16:09:11.676Z,13.09
2023-03-26T16:11:57.976Z,12.94
2023-03-26T16:14:42.304Z,12.90
2023-03-26T16:17:13.646Z,12.79
2023-03-26T16:19:49.628Z,12.72
2023-03-26T16:22:42.503Z,12.33
2023-03-26T16:25:27.249Z,12.38
2023-03-26T16:28:10.914Z,12.45
2023-03-26T16:30:38.160Z,12.54
2023-03-26T16:33:15.685Z,12.43
2023-03-26T16:35:42.563Z,12.29
2023-03-26T16:38:14.502Z,12.24
2023-03-26T16:41:03.563Z,12.02
2023-03-26T16:43:33.533Z,12.41
2023-03-26T16:46:03.520Z,12.49
2023-03-26T16:48:39.314Z,12.54
2023-03-26T16:51:17.216Z,11.58
2023-03-26T16:54:01.747Z,12.04
2023-03-26T16:56:53.170Z,11.80
2023-03-26T16:59:38.762Z,11.53
2023-03-26T17:02:13.831Z,11.62
2023-03-26T17:04:43.980Z,11.94
2023-03-26T17:07:16.827Z,11.85
2023-03-26T17:09:54.060Z,11.80
2023-03-26T17:12:20.839Z,11.86
2023-03-26T17:14:49.040Z,11.25
2023-03-26T17:17:31.458Z,11.34
2023-03-26T17:19:58.157Z,11.27
2023-03-26T17:22:35.092Z,11.42
2023-03-26T17:25:22.495Z,11.33
2023-03-26T17:28:15.593Z,11.23
2023-03-26T17:31:03.516Z,11.22
2023-03-26T17:33:38.923Z,10.86
2023-03-26T17:36:11.825Z,11.27
2023-03-26T17:38:45.326Z,10.97
2023-03-26T17:41:13.383Z,11.02
2023-03-26T17:43:48.023Z,10.75
2023-03-26T17:46:17.707Z,10.65
2023-03-26T17:48:47.136Z,11.17
2023-03-26T17:51:22.540Z,11.11
2023-03-26T17:53:49.955Z,11.21
2023-03-26T17:56:19.190Z,11.28
2023-03-26T17:58:49.085Z,11.04
2023-03-26T18:01:37.020Z,11.25
2023-03-26T18:04:07.050Z,11.13
2023-03-26T18:06:39.913Z,10.51
2023-03-26T18:09:24.134Z,10.77
2023-03-26T18:12:01.116Z,10.96
2023-03-26T18:14:46.613Z,10.81
2023-03-26T18:17:13.515Z,10.89
2023-03-26T18:19:48.215Z,10.91
2023-03-26T18:22:23.888Z,10.71
2023-03-26T18:24:54.376Z,10.58
2023-03-26T18:27:22.554Z,10.65
2023-03-26T18:30:01.702Z,10.76
2023-03-26T18:32:31.273Z,10.69
2023-03-26T18:35:24.475Z,10.68
2023-03-26T18:37:53.439Z,10.63
2023-03-26T18:40:23.489Z,10.66
2023-03-26T18:42:52.801Z,10.47
2023-03-26T18:45:27.835Z,10.30
2023-03-26T18:48:13.812Z,10.26
2023-03-26T18:50:42.047Z,10.44
2023-03-26T18:53:14.198Z,10.22
2023-03-26T18:55:43.636Z,9.96
2023-03-26T18:58:21.471Z,10.37
2023-03-26T19:00:49.963Z,10.22
2023-03-26T19:03:19.010Z,9.98
2023-03-26T19:05:45.916Z,10.01
2023-03-26T19:08:12.968Z,10.15
2023-03-26T19:10:39.731Z,10.05
2023-03-26T19:13:12.902Z,10.15
2023-03-26T19:15:39.860Z,10.31
2023-03-26T19:18:09.807Z,10.31
2023-03-26T19:20:39.831Z,10.28
2023-03-26T19:23:08.756Z,10.26
2023-03-26T19:25:39.262Z,10.01
2023-03-26T19:28:09.601Z,9.90
2023-03-26T19:30:43.222Z,9.80
2023-03-26T19:33:20.459Z,9.77
2023-03-26T19:35:54.037Z,9.67
2023-03-26T19:38:27.839Z,9.91
2023-03-26T19:40:56.094Z,10.01
2023-03-26T19:43:23.877Z,9.98
2023-03-26T19:45:59.963Z,9.56
2023-03-26T19:48:46.176Z,9.90
2023-03-26T19:51:21.982Z,9.71
2023-03-26T19:53:53.998Z,9.47
2023-03-26T19:56:22.103Z,9.59
2023-03-26T19:58:50.317Z,9.58
2023-03-26T20:01:21.694Z,9.17
2023-03-26T20:03:51.504Z,8.93
2023-03-26T20:06:22.146Z,9.19
2023-03-26T20:08:52.738Z,9.17
2023-03-26T20:11:33.218Z,9.30
2023-03-26T20:14:07.308Z,9.36
2023-03-26T20:16:35.172Z,9.34
2023-03-26T20:19:04.789Z,9.08
2023-03-26T20:21:34.718Z,8.54
2023-03-26T20:24:01.775Z,8.77
2023-03-26T20:26:28.618Z,8.61
2023-03-26T20:28:55.378Z,8.60
2023-03-26T20:31:23.420Z,8.59
2023-03-26T20:33:53.781Z,8.79
2023-03-26T20:36:33.687Z,9.09
2023-03-26T20:39:02.437Z,8.53
2023-03-26T20:41:29.129Z,8.74
2023-03-26T20:43:55.751Z,9.01
2023-03-26T20:46:23.929Z,8.97
2023-03-26T20:51:38.948Z,8.67
2023-03-26T20:54:06.449Z,8.77
2023-03-26T20:56:35.844Z,8.53
2023-03-26T20:59:11.023Z,8.44
2023-03-26T21:01:38.600Z,8.07
2023-03-26T21:04:05.747Z,8.32
2023-03-26T21:06:32.462Z,8.20
2023-03-26T21:08:59.215Z,8.18
2023-03-26T21:11:26.297Z,8.33
2023-03-26T21:14:02.106Z,8.17
2023-03-26T21:16:28.902Z,8.42
2023-03-26T21:18:58.542Z,8.21
2023-03-26T21:21:25.198Z,8.17
2023-03-26T21:23:59.446Z,7.82
2023-03-26T21:26:43.760Z,8.26
2023-03-26T21:29:11.829Z,8.23
2023-03-26T21:31:38.676Z,8.40
2023-03-26T21:34:09.745Z,8.25
2023-03-26T21:36:36.864Z,8.54
2023-03-26T21:39:05.128Z,8.47
2023-03-26T21:41:36.085Z,8.04
2023-03-26T21:44:03.703Z,8.39
2023-03-26T21:46:31.925Z,8.50
2023-03-26T21:48:58.751Z,8.39
2023-03-26T21:51:25.490Z,7.72
2023-03-26T21:53:52.766Z,8.31
2023-03-26T21:56:38.109Z,8.00
2023-03-26T21:59:07.922Z,8.30
2023-03-26T22:01:43.802Z,8.23
2023-03-26T22:04:25.535Z,8.56
2023-03-26T22:06:57.999Z,8.30
2023-03-26T22:12:02.690Z,8.32
2023-03-26T22:14:29.282Z,8.45
2023-03-26T22:16:55.984Z,8.60
2023-03-26T22:19:25.737Z,8.47
2023-03-26T22:21:52.436Z,7.96
2023-03-26T22:24:19.814Z,8.29
2023-03-26T22:26:47.077Z,8.23
2023-03-26T22:29:24.589Z,8.33
2023-03-26T22:31:51.338Z,8.36
2023-03-26T22:34:18.011Z,8.48
2023-03-26T22:36:44.756Z,8.38
2023-03-26T22:39:12.290Z,8.15
2023-03-26T22:41:39.155Z,8.21
2023-03-26T22:44:19.108Z,8.08
2023-03-26T22:46:49.384Z,8.02
2023-03-26T22:49:16.630Z,8.29
2023-03-26T22:51:43.524Z,8.21
2023-03-26T22:54:12.465Z,8.09
2023-03-26T22:56:39.256Z,8.11
2023-03-26T22:59:06.497Z,7.74
2023-03-26T23:01:33.266Z,8.16
2023-03-26T23:04:02.890Z,8.03
2023-03-26T23:06:29.723Z,8.13
2023-03-26T23:08:57.147Z,8.12
2023-03-26T23:11:24.113Z,8.40
2023-03-26T23:13:51.243Z,8.18
2023-03-26T23:16:19.279Z,7.86
2023-03-26T23:18:46.159Z,8.00
2023-03-26T23:21:20.605Z,8.05
2023-03-26T23:23:48.232Z,7.84
2023-03-26T23:26:15.479Z,7.64
2023-03-26T23:28:43.383Z,7.47
2023-03-26T23:31:14.683Z,7.57
2023-03-26T23:33:47.741Z,7.79
2023-03-26T23:36:20.721Z,7.58
2023-03-26T23:38:48.445Z,7.27
2023-03-26T23:41:16.227Z,7.18
2023-03-26T23:43:53.451Z,7.38
2023-03-26T23:46:23.631Z,7.53
2023-03-26T23:48:54.933Z,7.77
2023-03-26T23:51:22.390Z,7.39
2023-03-26T23:53:49.588Z,7.54
2023-03-26T23:56:16.517Z,7.26
2023-03-26T23:58:43.211Z,7.63
